Duncans Mills, CA (95430)

11:27 AM PDT on September 01, 2015 (GMT -0700)
Huckleberry Heights, Lower Austin Creek | | Change Station
CLOSE
Current Station
Personal Weather Station
Location: Cazadero, CA
Elevation: 299 ft
Nearby Weather Stations

Elev 299 ft 38.49 °N, 123.06 °W | Updated 1 minute ago

Clear
Clear
72.4 °F
Feels Like 75 °F
N
0.0
Wind Variable Wind from NNE
Gusts 2.0 mph

Today
High -- | Low -- °F
--% Chance of Precip.
Yesterday
High -- | Low -- °F
Precip. -- in
6:41 AM 7:42 PM
Waning Gibbous, 87% visible
Pressure 29.85 in
Visibility 10.0 miles
Clouds Few 25000 ft
Heat Index 75 °F
Dew Point 61 °F
Humidity 68%
Rainfall 0.00 in
Snow Depth Not available.
UV 6 out of 12
Pollen 6.90 out of 12
Air Quality Not available.
Flu Activity Not available.
METAR KSTS 011753Z 10003KT 10SM FEW250 23/12 A2986 RMK AO2 SLP106 T02280122 10228 20111 50000
Pressure 29.85 in
Visibility 10.0 miles
Clouds Few 25000 ft
Heat Index 75 °F
Dew Point 61 °F
Humidity 68%
Rainfall 0.00 in
Snow Depth Not available.
UV 6 out of 12
Pollen 6.90 out of 12
Air Quality Not available.
Flu Activity Not available.
METAR KSTS 011753Z 10003KT 10SM FEW250 23/12 A2986 RMK AO2 SLP106 T02280122 10228 20111 50000

10-Day Weather Forecast

×

Almanac

Astronomy

Sep. 01, 2015 Rise Set
Actual Time
Civil Twilight
Nautical Twilight
Astronomical Twilight
Moon
Length of Visible Light
Length of Day
Tomorrow will be .
, % of the Moon is Illuminated

Today's Extremes

State Highs State Lows

Community

WunderPhotos

Upload Photos

1,851,592 photos uploaded!

WunderBlogs® & News

Nearby

Air Quality

  Air Quality AQ Index Pollutant
Not available.

Snow Depth

Station Depth Elevation

Earthquake Activity

City Distance Mag. Time & Date
Minimum magnitude displayed is 2.5.

Coastal Water Temperatures

Place Temperature

Stations

Nearby Weather Stations

Station Location Temp. Windchill Dew Point Humidity Wind Precip. Elev Updated Type